Airfield :
LOGIN :

Register | Disclaimer

   EN    FR    IT 

 










Legend :    VFR   Marginal VFR   IFR   Intensive IFR   Very Intensive IFR
Visi :
Ceiling :
>= 8 km
>= 3000ft
5 to 8 km
1000 to 3000 ft
1500m to 5 km
500 to 1000 ft
800 to 1500m
200 to 500 ft
< 800m
< 200 ft
Symbols :   Thunderstorms  Fog  Heavy snow  Heavy precipitations  Wind > 20 kt
SIGMETs :     Misc.  Thunderstorms  Icing  Turbulence  Mountain Waves  Volcanic Ashes






- Airport Elevation : 287 ft


LFRL - Lanveoc Poulmic

CURRENT METAR :
  • 182030Z AUTO 26017KT 9999 FEW019/// BKN038/// BKN047/// ///TCU 09/06 Q1026 BECMG 25015G25KT BKN015

EXPIRED METARs :
  • 182000Z AUTO 26013KT 9999 SCT024 BKN045 BKN054 10/06 Q1026 TEMPO 4000 RA BKN013 FEW015TCU BECMG 25015G25KT
  • 181930Z AUTO 26016KT 9999 FEW020/// BKN027/// BKN048/// ///TCU 10/07 Q1027 TEMPO 4000 RA BECMG 25015G25KT BKN015
  • 181900Z AUTO 26015KT 9999 BKN023/// BKN035/// BKN046/// ///TCU 09/07 Q1027 TEMPO 4000 RA BKN013 FEW015TCU BECMG 25015G25KT
  • 181830Z AUTO 26013KT 9999 FEW015 SCT046 09/06 Q1026 TEMPO 4000 RA BKN013 FEW015TCU BECMG 25015G25KT
  • 181800Z AUTO 26016KT 9999 SCT021 BKN034 BKN052 09/06 Q1026 TEMPO 4000 RA BKN013 FEW015TCU BECMG 25015G25KT

TAF AMD TAF LFRL
Valid from the 18 at 13:00 until the 19 at 12:00 UTC


181352Z 1813/1912 25015G25KT 9999 SCT020
TEMPO 1813/1815 26015G30KT 5000 SHRA SCT020TCU BKN025
BECMG 1816/1818 BKN015
TEMPO 1818/1821 4000 RA BKN013 FEW015TCU
TEMPO 1903/1909 4000 -RA BKN010
BECMG 1903/1905 29010KT
BECMG 1910/1912 23015G25KT



MET'MAP, your aeronautical weather chart ! - Copyright ORBIFLY December 2007 - Disclaimer

ORBIFLY MET'MAP TEAM :

Programming & Development : Alexandra Zaïnal
Concept & original design : Baudouin d'Aumeries
Assistance for programming : Marc-Olivier Méhu
Technical & hardware support : Manuel Goepfert

Contact : metmap@orbifly.com




SOURCES & CREDITS :

   NOAA